sensor_id;sensor_type;location;lat;lon;timestamp;pressure;altitude;pressure_sealevel;temperature
45034;BMP280;30771;47.988;-4.186;2022-12-10T07:02:32;99567.06;;;-0.23
45034;BMP280;30771;47.988;-4.186;2022-12-10T07:04:58;99581.91;;;-0.25
45034;BMP280;30771;47.988;-4.186;2022-12-10T07:07:23;99578.34;;;-0.24
45034;BMP280;30771;47.988;-4.186;2022-12-10T07:09:48;99581.59;;;-0.22
45034;BMP280;30771;47.988;-4.186;2022-12-10T07:12:13;99566.75;;;-0.20
45034;BMP280;30771;47.988;-4.186;2022-12-10T07:14:38;99574.22;;;-0.17
45034;BMP280;30771;47.988;-4.186;2022-12-10T07:17:04;99575.03;;;-0.16
45034;BMP280;30771;47.988;-4.186;2022-12-10T07:19:29;99580.34;;;-0.18
45034;BMP280;30771;47.988;-4.186;2022-12-10T07:21:54;99576.13;;;-0.19
45034;BMP280;30771;47.988;-4.186;2022-12-10T07:24:19;99576.94;;;-0.18
45034;BMP280;30771;47.988;-4.186;2022-12-10T07:26:45;99577.91;;;-0.19
45034;BMP280;30771;47.988;-4.186;2022-12-10T07:29:15;99582.41;;;-0.21
45034;BMP280;30771;47.988;-4.186;2022-12-10T07:31:41;99589.78;;;-0.26
45034;BMP280;30771;47.988;-4.186;2022-12-10T07:34:06;99587.66;;;-0.31
45034;BMP280;30771;47.988;-4.186;2022-12-10T07:36:31;99593.22;;;-0.35
45034;BMP280;30771;47.988;-4.186;2022-12-10T07:38:56;99585.31;;;-0.34
45034;BMP280;30771;47.988;-4.186;2022-12-10T07:41:22;99579.31;;;-0.25
45034;BMP280;30771;47.988;-4.186;2022-12-10T07:43:48;99581.47;;;-0.20
45034;BMP280;30771;47.988;-4.186;2022-12-10T07:46:16;99587.13;;;-0.17
45034;BMP280;30771;47.988;-4.186;2022-12-10T07:48:41;99594.41;;;-0.20
45034;BMP280;30771;47.988;-4.186;2022-12-10T07:51:07;99600.66;;;-0.23
45034;BMP280;30771;47.988;-4.186;2022-12-10T07:53:32;99593.72;;;-0.22
45034;BMP280;30771;47.988;-4.186;2022-12-10T07:55:58;99600.78;;;-0.24
45034;BMP280;30771;47.988;-4.186;2022-12-10T07:58:23;99601.34;;;-0.21
45034;BMP280;30771;47.988;-4.186;2022-12-10T08:00:48;99600.44;;;-0.12
45034;BMP280;30771;47.988;-4.186;2022-12-10T08:03:14;99597.72;;;-0.10
45034;BMP280;30771;47.988;-4.186;2022-12-10T08:05:39;99608.47;;;-0.05
45034;BMP280;30771;47.988;-4.186;2022-12-10T08:08:04;99611.41;;;0.00
45034;BMP280;30771;47.988;-4.186;2022-12-10T08:10:29;99612.88;;;0.03
45034;BMP280;30771;47.988;-4.186;2022-12-10T08:12:54;99617.19;;;0.12
45034;BMP280;30771;47.988;-4.186;2022-12-10T08:15:19;99625.16;;;0.18
45034;BMP280;30771;47.988;-4.186;2022-12-10T08:17:45;99632.78;;;0.20
45034;BMP280;30771;47.988;-4.186;2022-12-10T08:20:10;99643.16;;;0.20
45034;BMP280;30771;47.988;-4.186;2022-12-10T08:22:35;99645.28;;;0.24
45034;BMP280;30771;47.988;-4.186;2022-12-10T08:25:01;99648.53;;;0.26
45034;BMP280;30771;47.988;-4.186;2022-12-10T08:27:26;99656.59;;;0.23
45034;BMP280;30771;47.988;-4.186;2022-12-10T08:29:51;99663.84;;;0.20
45034;BMP280;30771;47.988;-4.186;2022-12-10T08:32:16;99655.28;;;0.19
45034;BMP280;30771;47.988;-4.186;2022-12-10T08:34:41;99653.72;;;0.26
45034;BMP280;30771;47.988;-4.186;2022-12-10T08:37:06;99651.31;;;0.33
45034;BMP280;30771;47.988;-4.186;2022-12-10T08:39:32;99648.81;;;0.41
45034;BMP280;30771;47.988;-4.186;2022-12-10T08:41:57;99666.84;;;0.50
45034;BMP280;30771;47.988;-4.186;2022-12-10T08:44:22;99661.59;;;0.60
45034;BMP280;30771;47.988;-4.186;2022-12-10T08:46:48;99662.84;;;0.74
45034;BMP280;30771;47.988;-4.186;2022-12-10T08:49:14;99667.59;;;0.86
45034;BMP280;30771;47.988;-4.186;2022-12-10T08:51:39;99679.97;;;0.92
45034;BMP280;30771;47.988;-4.186;2022-12-10T08:54:04;99694.41;;;0.95
45034;BMP280;30771;47.988;-4.186;2022-12-10T08:56:29;99705.44;;;0.97
45034;BMP280;30771;47.988;-4.186;2022-12-10T08:58:54;99720.16;;;0.96
45034;BMP280;30771;47.988;-4.186;2022-12-10T09:01:20;99714.97;;;0.96
45034;BMP280;30771;47.988;-4.186;2022-12-10T09:03:45;99713.56;;;1.02
45034;BMP280;30771;47.988;-4.186;2022-12-10T09:06:17;99717.03;;;1.10
45034;BMP280;30771;47.988;-4.186;2022-12-10T09:08:43;99713.81;;;1.16
45034;BMP280;30771;47.988;-4.186;2022-12-10T09:11:13;99719.38;;;1.21
45034;BMP280;30771;47.988;-4.186;2022-12-10T09:13:38;99711.13;;;1.26
45034;BMP280;30771;47.988;-4.186;2022-12-10T09:16:04;99719.44;;;1.29
45034;BMP280;30771;47.988;-4.186;2022-12-10T09:18:29;99713.13;;;1.32
45034;BMP280;30771;47.988;-4.186;2022-12-10T09:20:54;99715.72;;;1.32
45034;BMP280;30771;47.988;-4.186;2022-12-10T09:23:19;99717.16;;;1.34
45034;BMP280;30771;47.988;-4.186;2022-12-10T09:25:46;99721.91;;;1.39
45034;BMP280;30771;47.988;-4.186;2022-12-10T09:28:12;99710.91;;;1.45
45034;BMP280;30771;47.988;-4.186;2022-12-10T09:30:37;99718.06;;;1.51
45034;BMP280;30771;47.988;-4.186;2022-12-10T09:33:02;99716.47;;;1.58
45034;BMP280;30771;47.988;-4.186;2022-12-10T09:35:28;99727.06;;;1.65
45034;BMP280;30771;47.988;-4.186;2022-12-10T09:37:53;99734.75;;;1.74
45034;BMP280;30771;47.988;-4.186;2022-12-10T09:40:20;99733.81;;;1.83
45034;BMP280;30771;47.988;-4.186;2022-12-10T09:42:51;99742.25;;;1.93
45034;BMP280;30771;47.988;-4.186;2022-12-10T09:45:23;99750.06;;;2.01
45034;BMP280;30771;47.988;-4.186;2022-12-10T09:48:02;99755.47;;;2.08
45034;BMP280;30771;47.988;-4.186;2022-12-10T09:52:55;99747.06;;;2.22
45034;BMP280;30771;47.988;-4.186;2022-12-10T09:55:26;99771.44;;;2.37
45034;BMP280;30771;47.988;-4.186;2022-12-10T09:57:53;99783.78;;;2.43
45034;BMP280;30771;47.988;-4.186;2022-12-10T10:00:22;99787.06;;;2.45
45034;BMP280;30771;47.988;-4.186;2022-12-10T10:02:48;99785.59;;;2.51
45034;BMP280;30771;47.988;-4.186;2022-12-10T10:05:57;99776.34;;;2.56
45034;BMP280;30771;47.988;-4.186;2022-12-10T10:08:04;99785.09;;;2.63
45034;BMP280;30771;47.988;-4.186;2022-12-10T10:10:37;99784.47;;;2.69
45034;BMP280;30771;47.988;-4.186;2022-12-10T10:15:36;99794.25;;;2.84
45034;BMP280;30771;47.988;-4.186;2022-12-10T10:18:02;99798.66;;;2.91
45034;BMP280;30771;47.988;-4.186;2022-12-10T10:20:29;99801.38;;;2.98
45034;BMP280;30771;47.988;-4.186;2022-12-10T10:22:56;99813.75;;;3.04
45034;BMP280;30771;47.988;-4.186;2022-12-10T10:25:22;99813.25;;;3.08
45034;BMP280;30771;47.988;-4.186;2022-12-10T10:27:47;99817.97;;;3.13
45034;BMP280;30771;47.988;-4.186;2022-12-10T10:30:16;99826.91;;;3.18
45034;BMP280;30771;47.988;-4.186;2022-12-10T10:32:44;99829.00;;;3.23
45034;BMP280;30771;47.988;-4.186;2022-12-10T10:35:19;99832.09;;;3.26
45034;BMP280;30771;47.988;-4.186;2022-12-10T10:37:45;99841.03;;;3.32
45034;BMP280;30771;47.988;-4.186;2022-12-10T10:40:30;99854.38;;;3.37
45034;BMP280;30771;47.988;-4.186;2022-12-10T10:42:56;99858.94;;;3.43
45034;BMP280;30771;47.988;-4.186;2022-12-10T10:45:41;99854.03;;;3.48
45034;BMP280;30771;47.988;-4.186;2022-12-10T10:48:12;99857.59;;;3.55
45034;BMP280;30771;47.988;-4.186;2022-12-10T10:50:39;99861.16;;;3.62
45034;BMP280;30771;47.988;-4.186;2022-12-10T10:55:48;99869.28;;;3.75
45034;BMP280;30771;47.988;-4.186;2022-12-10T10:58:17;99859.97;;;3.81
45034;BMP280;30771;47.988;-4.186;2022-12-10T11:00:42;99869.56;;;3.88
45034;BMP280;30771;47.988;-4.186;2022-12-10T11:03:17;99868.88;;;3.94
45034;BMP280;30771;47.988;-4.186;2022-12-10T11:05:42;99874.41;;;3.99
45034;BMP280;30771;47.988;-4.186;2022-12-10T11:08:18;99895.56;;;4.04
45034;BMP280;30771;47.988;-4.186;2022-12-10T11:10:54;99894.25;;;4.08
45034;BMP280;30771;47.988;-4.186;2022-12-10T11:13:27;99900.94;;;4.11
45034;BMP280;30771;47.988;-4.186;2022-12-10T11:16:35;99904.97;;;4.13
45034;BMP280;30771;47.988;-4.186;2022-12-10T11:18:42;99915.88;;;4.17
45034;BMP280;30771;47.988;-4.186;2022-12-10T11:23:40;99912.28;;;4.18
45034;BMP280;30771;47.988;-4.186;2022-12-10T11:26:18;99909.53;;;4.19
45034;BMP280;30771;47.988;-4.186;2022-12-10T11:36:38;99921.41;;;4.22
45034;BMP280;30771;47.988;-4.186;2022-12-10T11:41:54;99911.63;;;4.24
45034;BMP280;30771;47.988;-4.186;2022-12-10T11:44:41;99919.25;;;4.25
45034;BMP280;30771;47.988;-4.186;2022-12-10T12:00:36;99921.97;;;4.40
45034;BMP280;30771;47.988;-4.186;2022-12-10T12:05:40;99911.34;;;4.50
45034;BMP280;30771;47.988;-4.186;2022-12-10T12:13:05;99900.91;;;4.80
45034;BMP280;30771;47.988;-4.186;2022-12-10T12:18:02;99917.22;;;5.05
45034;BMP280;30771;47.988;-4.186;2022-12-10T12:20:30;99910.13;;;5.14
45034;BMP280;30771;47.988;-4.186;2022-12-10T12:23:02;99923.13;;;5.22
45034;BMP280;30771;47.988;-4.186;2022-12-10T12:25:30;99920.78;;;5.27
45034;BMP280;30771;47.988;-4.186;2022-12-10T12:28:44;99916.06;;;5.30
45034;BMP280;30771;47.988;-4.186;2022-12-10T12:30:43;99903.63;;;5.32
45034;BMP280;30771;47.988;-4.186;2022-12-10T12:33:10;99905.09;;;5.35
45034;BMP280;30771;47.988;-4.186;2022-12-10T12:38:45;99895.09;;;5.38
45034;BMP280;30771;47.988;-4.186;2022-12-10T12:40:53;99884.28;;;5.41
45034;BMP280;30771;47.988;-4.186;2022-12-10T12:43:21;99882.16;;;5.45
45034;BMP280;30771;47.988;-4.186;2022-12-10T12:45:48;99881.78;;;5.48
45034;BMP280;30771;47.988;-4.186;2022-12-10T12:48:28;99879.66;;;5.51
45034;BMP280;30771;47.988;-4.186;2022-12-10T12:51:00;99876.66;;;5.54
45034;BMP280;30771;47.988;-4.186;2022-12-10T12:53:27;99871.72;;;5.59
45034;BMP280;30771;47.988;-4.186;2022-12-10T13:00:46;99880.63;;;5.65
45034;BMP280;30771;47.988;-4.186;2022-12-10T13:05:40;99870.44;;;5.70
45034;BMP280;30771;47.988;-4.186;2022-12-10T13:08:15;99861.44;;;5.72
45034;BMP280;30771;47.988;-4.186;2022-12-10T13:18:42;99865.16;;;5.78
45034;BMP280;30771;47.988;-4.186;2022-12-10T13:23:52;99859.47;;;5.74
45034;BMP280;30771;47.988;-4.186;2022-12-10T13:28:52;99853.25;;;5.75
45034;BMP280;30771;47.988;-4.186;2022-12-10T13:31:19;99852.91;;;5.78
45034;BMP280;30771;47.988;-4.186;2022-12-10T13:36:20;99850.00;;;5.88
45034;BMP280;30771;47.988;-4.186;2022-12-10T13:41:39;99856.13;;;5.95
45034;BMP280;30771;47.988;-4.186;2022-12-10T13:44:21;99851.97;;;6.01
45034;BMP280;30771;47.988;-4.186;2022-12-10T13:46:53;99848.47;;;6.08
45034;BMP280;30771;47.988;-4.186;2022-12-10T13:52:19;99855.66;;;6.21
45034;BMP280;30771;47.988;-4.186;2022-12-10T13:54:53;99851.47;;;6.26
45034;BMP280;30771;47.988;-4.186;2022-12-10T13:57:32;99848.13;;;6.32
45034;BMP280;30771;47.988;-4.186;2022-12-10T14:00:02;99836.50;;;6.35
45034;BMP280;30771;47.988;-4.186;2022-12-10T14:07:26;99818.84;;;6.37
45034;BMP280;30771;47.988;-4.186;2022-12-10T14:09:56;99813.97;;;6.34
45034;BMP280;30771;47.988;-4.186;2022-12-10T14:14:52;99791.50;;;6.18
45034;BMP280;30771;47.988;-4.186;2022-12-10T14:17:19;99782.78;;;6.11
45034;BMP280;30771;47.988;-4.186;2022-12-10T14:19:46;99769.19;;;6.01
45034;BMP280;30771;47.988;-4.186;2022-12-10T14:22:16;99757.06;;;5.94
45034;BMP280;30771;47.988;-4.186;2022-12-10T14:24:41;99746.09;;;5.84
45034;BMP280;30771;47.988;-4.186;2022-12-10T14:29:34;99709.91;;;5.66
45034;BMP280;30771;47.988;-4.186;2022-12-10T14:31:59;99696.78;;;5.59
45034;BMP280;30771;47.988;-4.186;2022-12-10T14:34:26;99686.88;;;5.55
45034;BMP280;30771;47.988;-4.186;2022-12-10T14:36:52;99666.19;;;5.53
45034;BMP280;30771;47.988;-4.186;2022-12-10T14:39:24;99654.16;;;5.52
45034;BMP280;30771;47.988;-4.186;2022-12-10T14:41:50;99642.06;;;5.51
45034;BMP280;30771;47.988;-4.186;2022-12-10T14:44:16;99629.22;;;5.50
45034;BMP280;30771;47.988;-4.186;2022-12-10T14:46:42;99619.56;;;5.50
45034;BMP280;30771;47.988;-4.186;2022-12-10T14:49:41;99609.31;;;5.49
45034;BMP280;30771;47.988;-4.186;2022-12-10T14:51:59;99606.88;;;5.47
45034;BMP280;30771;47.988;-4.186;2022-12-10T14:54:29;99616.66;;;5.45
45034;BMP280;30771;47.988;-4.186;2022-12-10T14:56:54;99605.59;;;5.43
45034;BMP280;30771;47.988;-4.186;2022-12-10T14:59:27;99604.00;;;5.42
45034;BMP280;30771;47.988;-4.186;2022-12-10T15:01:54;99604.16;;;5.41
45034;BMP280;30771;47.988;-4.186;2022-12-10T15:04:21;99602.56;;;5.40
45034;BMP280;30771;47.988;-4.186;2022-12-10T15:06:46;99593.34;;;5.37
45034;BMP280;30771;47.988;-4.186;2022-12-10T15:09:30;99606.53;;;5.36
45034;BMP280;30771;47.988;-4.186;2022-12-10T15:11:55;99595.47;;;5.34
45034;BMP280;30771;47.988;-4.186;2022-12-10T15:14:21;99591.78;;;5.28
45034;BMP280;30771;47.988;-4.186;2022-12-10T15:16:47;99585.94;;;5.26
45034;BMP280;30771;47.988;-4.186;2022-12-10T15:22:27;99586.88;;;5.19
45034;BMP280;30771;47.988;-4.186;2022-12-10T15:24:46;99576.16;;;5.14
45034;BMP280;30771;47.988;-4.186;2022-12-10T15:27:15;99582.75;;;5.10
45034;BMP280;30771;47.988;-4.186;2022-12-10T15:29:40;99578.09;;;5.05
45034;BMP280;30771;47.988;-4.186;2022-12-10T15:32:13;99570.00;;;5.00
45034;BMP280;30771;47.988;-4.186;2022-12-10T15:34:39;99571.16;;;4.97
45034;BMP280;30771;47.988;-4.186;2022-12-10T15:37:05;99571.09;;;4.91
45034;BMP280;30771;47.988;-4.186;2022-12-10T15:39:43;99568.22;;;4.86
45034;BMP280;30771;47.988;-4.186;2022-12-10T15:42:24;99566.94;;;4.82
45034;BMP280;30771;47.988;-4.186;2022-12-10T15:44:54;99558.03;;;4.76
45034;BMP280;30771;47.988;-4.186;2022-12-10T15:47:20;99547.16;;;4.73
45034;BMP280;30771;47.988;-4.186;2022-12-10T15:49:46;99544.31;;;4.68
45034;BMP280;30771;47.988;-4.186;2022-12-10T15:52:28;99538.28;;;4.67
45034;BMP280;30771;47.988;-4.186;2022-12-10T15:54:55;99529.28;;;4.70
45034;BMP280;30771;47.988;-4.186;2022-12-10T15:59:49;99525.78;;;4.63
45034;BMP280;30771;47.988;-4.186;2022-12-10T16:04:43;99517.00;;;4.49
45034;BMP280;30771;47.988;-4.186;2022-12-10T16:07:08;99505.66;;;4.42
45034;BMP280;30771;47.988;-4.186;2022-12-10T16:09:33;99502.13;;;4.35
45034;BMP280;30771;47.988;-4.186;2022-12-10T16:11:58;99498.50;;;4.30
45034;BMP280;30771;47.988;-4.186;2022-12-10T16:14:24;99493.00;;;4.24
45034;BMP280;30771;47.988;-4.186;2022-12-10T16:16:49;99486.69;;;4.19
45034;BMP280;30771;47.988;-4.186;2022-12-10T16:19:14;99489.00;;;4.14
45034;BMP280;30771;47.988;-4.186;2022-12-10T16:21:39;99485.19;;;4.10
45034;BMP280;30771;47.988;-4.186;2022-12-10T16:24:04;99474.63;;;4.03
45034;BMP280;30771;47.988;-4.186;2022-12-10T16:26:30;99473.38;;;3.99
45034;BMP280;30771;47.988;-4.186;2022-12-10T16:28:55;99469.50;;;3.95
45034;BMP280;30771;47.988;-4.186;2022-12-10T16:31:20;99459.81;;;3.89
45034;BMP280;30771;47.988;-4.186;2022-12-10T16:33:46;99453.34;;;3.85
45034;BMP280;30771;47.988;-4.186;2022-12-10T16:36:11;99453.41;;;3.77
45034;BMP280;30771;47.988;-4.186;2022-12-10T16:38:37;99450.72;;;3.71
45034;BMP280;30771;47.988;-4.186;2022-12-10T16:41:02;99449.00;;;3.63
45034;BMP280;30771;47.988;-4.186;2022-12-10T16:43:28;99445.63;;;3.55
45034;BMP280;30771;47.988;-4.186;2022-12-10T16:45:54;99442.75;;;3.49
45034;BMP280;30771;47.988;-4.186;2022-12-10T16:48:19;99440.06;;;3.43
45034;BMP280;30771;47.988;-4.186;2022-12-10T16:50:45;99441.53;;;3.37
45034;BMP280;30771;47.988;-4.186;2022-12-10T16:53:18;99434.59;;;3.30
45034;BMP280;30771;47.988;-4.186;2022-12-10T16:55:44;99432.69;;;3.24
45034;BMP280;30771;47.988;-4.186;2022-12-10T16:58:10;99424.25;;;3.22
45034;BMP280;30771;47.988;-4.186;2022-12-10T17:00:36;99419.25;;;3.20
45034;BMP280;30771;47.988;-4.186;2022-12-10T17:03:01;99421.41;;;3.17
45034;BMP280;30771;47.988;-4.186;2022-12-10T17:05:31;99409.88;;;3.11
45034;BMP280;30771;47.988;-4.186;2022-12-10T17:07:58;99404.38;;;3.06
45034;BMP280;30771;47.988;-4.186;2022-12-10T17:10:23;99396.44;;;3.00
45034;BMP280;30771;47.988;-4.186;2022-12-10T17:12:48;99392.91;;;2.93
45034;BMP280;30771;47.988;-4.186;2022-12-10T17:15:14;99389.91;;;2.89
45034;BMP280;30771;47.988;-4.186;2022-12-10T17:17:39;99385.38;;;2.83
45034;BMP280;30771;47.988;-4.186;2022-12-10T17:20:17;99377.13;;;2.80
45034;BMP280;30771;47.988;-4.186;2022-12-10T17:22:43;99379.41;;;2.74
45034;BMP280;30771;47.988;-4.186;2022-12-10T17:25:08;99379.75;;;2.71
45034;BMP280;30771;47.988;-4.186;2022-12-10T17:27:33;99369.53;;;2.70
45034;BMP280;30771;47.988;-4.186;2022-12-10T17:29:58;99367.91;;;2.69
45034;BMP280;30771;47.988;-4.186;2022-12-10T17:32:23;99366.13;;;2.69
45034;BMP280;30771;47.988;-4.186;2022-12-10T17:34:48;99374.88;;;2.68
45034;BMP280;30771;47.988;-4.186;2022-12-10T17:37:15;99379.44;;;2.66
45034;BMP280;30771;47.988;-4.186;2022-12-10T17:39:40;99378.63;;;2.66
45034;BMP280;30771;47.988;-4.186;2022-12-10T17:42:05;99373.75;;;2.63
45034;BMP280;30771;47.988;-4.186;2022-12-10T17:44:31;99369.91;;;2.59
45034;BMP280;30771;47.988;-4.186;2022-12-10T17:46:56;99370.44;;;2.54
45034;BMP280;30771;47.988;-4.186;2022-12-10T17:49:21;99377.59;;;2.52
45034;BMP280;30771;47.988;-4.186;2022-12-10T17:51:46;99368.50;;;2.48
45034;BMP280;30771;47.988;-4.186;2022-12-10T17:54:12;99358.28;;;2.47
45034;BMP280;30771;47.988;-4.186;2022-12-10T17:56:37;99362.84;;;2.45
45034;BMP280;30771;47.988;-4.186;2022-12-10T17:59:02;99362.22;;;2.43
45034;BMP280;30771;47.988;-4.186;2022-12-10T18:01:28;99348.56;;;2.41
45034;BMP280;30771;47.988;-4.186;2022-12-10T18:03:53;99354.09;;;2.38
45034;BMP280;30771;47.988;-4.186;2022-12-10T18:06:19;99351.03;;;2.34
45034;BMP280;30771;47.988;-4.186;2022-12-10T18:08:45;99348.75;;;2.31
45034;BMP280;30771;47.988;-4.186;2022-12-10T18:11:11;99336.13;;;2.28
45034;BMP280;30771;47.988;-4.186;2022-12-10T18:13:37;99336.13;;;2.28
45034;BMP280;30771;47.988;-4.186;2022-12-10T18:16:02;99322.50;;;2.26
45034;BMP280;30771;47.988;-4.186;2022-12-10T18:18:28;99328.06;;;2.23
45034;BMP280;30771;47.988;-4.186;2022-12-10T18:20:53;99325.94;;;2.19
45034;BMP280;30771;47.988;-4.186;2022-12-10T18:23:18;99325.31;;;2.17
45034;BMP280;30771;47.988;-4.186;2022-12-10T18:25:43;99323.72;;;2.16
45034;BMP280;30771;47.988;-4.186;2022-12-10T18:28:53;99315.44;;;2.12
45034;BMP280;30771;47.988;-4.186;2022-12-10T18:30:59;99308.78;;;2.10
45034;BMP280;30771;47.988;-4.186;2022-12-10T18:33:24;99307.19;;;2.09
45034;BMP280;30771;47.988;-4.186;2022-12-10T18:35:49;99300.38;;;2.08
45034;BMP280;30771;47.988;-4.186;2022-12-10T18:38:15;99301.31;;;2.06
45034;BMP280;30771;47.988;-4.186;2022-12-10T18:40:40;99304.28;;;2.03
45034;BMP280;30771;47.988;-4.186;2022-12-10T18:43:06;99308.03;;;2.01
45034;BMP280;30771;47.988;-4.186;2022-12-10T18:45:31;99306.72;;;1.97
45034;BMP280;30771;47.988;-4.186;2022-12-10T18:47:56;99312.25;;;1.94
45034;BMP280;30771;47.988;-4.186;2022-12-10T18:50:22;99303.16;;;1.90
45034;BMP280;30771;47.988;-4.186;2022-12-10T18:52:47;99305.13;;;1.88
45034;BMP280;30771;47.988;-4.186;2022-12-10T18:55:13;99297.53;;;1.86
45034;BMP280;30771;47.988;-4.186;2022-12-10T18:57:38;99290.91;;;1.84
45034;BMP280;30771;47.988;-4.186;2022-12-10T19:00:05;99291.06;;;1.82
45034;BMP280;30771;47.988;-4.186;2022-12-10T19:02:34;99284.41;;;1.80
45034;BMP280;30771;47.988;-4.186;2022-12-10T19:04:59;99277.78;;;1.77
45034;BMP280;30771;47.988;-4.186;2022-12-10T19:07:25;99276.81;;;1.78
45034;BMP280;30771;47.988;-4.186;2022-12-10T19:09:50;99276.81;;;1.78
45034;BMP280;30771;47.988;-4.186;2022-12-10T19:12:15;99277.00;;;1.77
45034;BMP280;30771;47.988;-4.186;2022-12-10T19:14:40;99277.00;;;1.77
45034;BMP280;30771;47.988;-4.186;2022-12-10T19:17:05;99276.81;;;1.78
45034;BMP280;30771;47.988;-4.186;2022-12-10T19:19:30;99269.84;;;1.79
45034;BMP280;30771;47.988;-4.186;2022-12-10T19:21:56;99268.03;;;1.79
45034;BMP280;30771;47.988;-4.186;2022-12-10T19:24:21;99282.97;;;1.77
45034;BMP280;30771;47.988;-4.186;2022-12-10T19:26:46;99281.50;;;1.75
45034;BMP280;30771;47.988;-4.186;2022-12-10T19:29:12;99277.31;;;1.74
45034;BMP280;30771;47.988;-4.186;2022-12-10T19:31:38;99271.50;;;1.72
45034;BMP280;30771;47.988;-4.186;2022-12-10T19:34:03;99262.25;;;1.69
45034;BMP280;30771;47.988;-4.186;2022-12-10T19:36:28;99262.41;;;1.68
45034;BMP280;30771;47.988;-4.186;2022-12-10T19:38:53;99259.34;;;1.64
45034;BMP280;30771;47.988;-4.186;2022-12-10T19:41:18;99255.28;;;1.62
45034;BMP280;30771;47.988;-4.186;2022-12-10T19:43:44;99260.63;;;1.60
45034;BMP280;30771;47.988;-4.186;2022-12-10T19:46:17;99259.34;;;1.56
45034;BMP280;30771;47.988;-4.186;2022-12-10T19:48:43;99256.75;;;1.56
45034;BMP280;30771;47.988;-4.186;2022-12-10T19:51:08;99248.97;;;1.56
45034;BMP280;30771;47.988;-4.186;2022-12-10T19:53:34;99252.38;;;1.57
45034;BMP280;30771;47.988;-4.186;2022-12-10T19:55:59;99250.75;;;1.56
45034;BMP280;30771;47.988;-4.186;2022-12-10T19:58:24;99249.94;;;1.55
45034;BMP280;30771;47.988;-4.186;2022-12-10T20:00:50;99249.94;;;1.55
45034;BMP280;30771;47.988;-4.186;2022-12-10T20:03:15;99247.19;;;1.57
45034;BMP280;30771;47.988;-4.186;2022-12-10T20:05:40;99237.63;;;1.57
45034;BMP280;30771;47.988;-4.186;2022-12-10T20:08:05;99239.25;;;1.58
45034;BMP280;30771;47.988;-4.186;2022-12-10T20:10:30;99240.06;;;1.59
45034;BMP280;30771;47.988;-4.186;2022-12-10T20:12:56;99229.84;;;1.57
45034;BMP280;30771;47.988;-4.186;2022-12-10T20:15:22;99220.91;;;1.60
45034;BMP280;30771;47.988;-4.186;2022-12-10T20:17:47;99224.31;;;1.60
45034;BMP280;30771;47.988;-4.186;2022-12-10T20:20:17;99216.72;;;1.59
45034;BMP280;30771;47.988;-4.186;2022-12-10T20:22:43;99216.91;;;1.57
45034;BMP280;30771;47.988;-4.186;2022-12-10T20:25:08;99205.06;;;1.55
45034;BMP280;30771;47.988;-4.186;2022-12-10T20:27:33;99195.84;;;1.52
45034;BMP280;30771;47.988;-4.186;2022-12-10T20:29:58;99192.56;;;1.50
45034;BMP280;30771;47.988;-4.186;2022-12-10T20:32:24;99187.56;;;1.49
45034;BMP280;30771;47.988;-4.186;2022-12-10T20:34:49;99186.59;;;1.50
45034;BMP280;30771;47.988;-4.186;2022-12-10T20:37:14;99178.66;;;1.51
45034;BMP280;30771;47.988;-4.186;2022-12-10T20:39:39;99174.28;;;1.52
45034;BMP280;30771;47.988;-4.186;2022-12-10T20:42:04;99169.91;;;1.52
45034;BMP280;30771;47.988;-4.186;2022-12-10T20:44:29;99163.09;;;1.51
45034;BMP280;30771;47.988;-4.186;2022-12-10T20:46:55;99158.88;;;1.50
45034;BMP280;30771;47.988;-4.186;2022-12-10T20:49:21;99150.44;;;1.48
45034;BMP280;30771;47.988;-4.186;2022-12-10T20:51:46;99149.00;;;1.46
45034;BMP280;30771;47.988;-4.186;2022-12-10T20:54:12;99133.44;;;1.46
45034;BMP280;30771;47.988;-4.186;2022-12-10T20:56:37;99126.97;;;1.50
45034;BMP280;30771;47.988;-4.186;2022-12-10T20:59:03;99117.84;;;1.54
45034;BMP280;30771;47.988;-4.186;2022-12-10T21:01:28;99102.78;;;1.57
45034;BMP280;30771;47.988;-4.186;2022-12-10T21:03:54;99098.38;;;1.58
45034;BMP280;30771;47.988;-4.186;2022-12-10T21:06:20;99102.44;;;1.60
45034;BMP280;30771;47.988;-4.186;2022-12-10T21:08:45;99099.31;;;1.65
45034;BMP280;30771;47.988;-4.186;2022-12-10T21:11:11;99081.47;;;1.70
45034;BMP280;30771;47.988;-4.186;2022-12-10T21:13:36;99079.34;;;1.73
45034;BMP280;30771;47.988;-4.186;2022-12-10T21:16:02;99086.16;;;1.74
45034;BMP280;30771;47.988;-4.186;2022-12-10T21:18:28;99086.31;;;1.73
45034;BMP280;30771;47.988;-4.186;2022-12-10T21:20:53;99093.78;;;1.68
45034;BMP280;30771;47.988;-4.186;2022-12-10T21:23:20;99090.75;;;1.64
45034;BMP280;30771;47.988;-4.186;2022-12-10T21:25:45;99081.53;;;1.62
45034;BMP280;30771;47.988;-4.186;2022-12-10T21:28:10;99076.66;;;1.59
45034;BMP280;30771;47.988;-4.186;2022-12-10T21:30:35;99070.66;;;1.58
45034;BMP280;30771;47.988;-4.186;2022-12-10T21:33:01;99061.44;;;1.56
45034;BMP280;30771;47.988;-4.186;2022-12-10T21:35:26;99053.84;;;1.54
45034;BMP280;30771;47.988;-4.186;2022-12-10T21:37:51;99053.84;;;1.54
45034;BMP280;30771;47.988;-4.186;2022-12-10T21:40:16;99049.63;;;1.53
45034;BMP280;30771;47.988;-4.186;2022-12-10T21:42:42;99045.59;;;1.51
45034;BMP280;30771;47.988;-4.186;2022-12-10T21:45:07;99040.41;;;1.51
45034;BMP280;30771;47.988;-4.186;2022-12-10T21:47:32;99036.84;;;1.52
45034;BMP280;30771;47.988;-4.186;2022-12-10T21:49:57;99022.88;;;1.53
45034;BMP280;30771;47.988;-4.186;2022-12-10T21:52:23;99023.69;;;1.53
45034;BMP280;30771;47.988;-4.186;2022-12-10T21:54:48;99017.88;;;1.51
45034;BMP280;30771;47.988;-4.186;2022-12-10T21:57:13;99012.22;;;1.48
45034;BMP280;30771;47.988;-4.186;2022-12-10T21:59:38;99008.97;;;1.46
45034;BMP280;30771;47.988;-4.186;2022-12-10T22:02:03;99009.31;;;1.43
45034;BMP280;30771;47.988;-4.186;2022-12-10T22:04:28;99006.09;;;1.41
45034;BMP280;30771;47.988;-4.186;2022-12-10T22:06:54;99006.28;;;1.39
45034;BMP280;30771;47.988;-4.186;2022-12-10T22:09:19;98998.50;;;1.39
45034;BMP280;30771;47.988;-4.186;2022-12-10T22:11:44;98986.50;;;1.38
45034;BMP280;30771;47.988;-4.186;2022-12-10T22:14:09;98981.50;;;1.36
45034;BMP280;30771;47.988;-4.186;2022-12-10T22:16:34;98981.50;;;1.36
45034;BMP280;30771;47.988;-4.186;2022-12-10T22:19:00;98985.88;;;1.36
45034;BMP280;30771;47.988;-4.186;2022-12-10T22:21:25;98990.44;;;1.34
45034;BMP280;30771;47.988;-4.186;2022-12-10T22:23:50;98987.84;;;1.34
45034;BMP280;30771;47.988;-4.186;2022-12-10T22:26:15;98983.81;;;1.31
45034;BMP280;30771;47.988;-4.186;2022-12-10T22:28:41;98987.38;;;1.30
45034;BMP280;30771;47.988;-4.186;2022-12-10T22:31:06;98988.19;;;1.31
45034;BMP280;30771;47.988;-4.186;2022-12-10T22:33:32;98981.41;;;1.30
45034;BMP280;30771;47.988;-4.186;2022-12-10T22:35:57;98980.41;;;1.31
45034;BMP280;30771;47.988;-4.186;2022-12-10T22:38:22;98982.19;;;1.30
45034;BMP280;30771;47.988;-4.186;2022-12-10T22:40:47;98979.78;;;1.29
45034;BMP280;30771;47.988;-4.186;2022-12-10T22:43:13;98975.13;;;1.24